PWSweather.com
Personal Weather Stations
Station Observations
PALMY
Palmerston NorthNZ 4410

Palmerston NorthNZ 4410

Lat: -40.349104, Lon: 175.615094

Elevation: 75.4

Station Type: WeatherDuino Pro2

http://palmyweather.co.nz

Latest ConditionsUpdated 7:50:00 PM GMT+12:12 Thursday, Dec 12, 2019
Currently Today's Max Today's Min Today's Average
Temperature 67.3°F19.6°C 77.7°F25.4°C 56.8°F13.8°C 67.8°F19.9°C
Dew Point 55.1°F12.8°C 57.7°F14.3°C 50.7°F10.4°C 54.2°F12.3°C
Winds 2.7 mph ESE4.3 kmh ESE 6.3 mph -10.1 kmh - - 3.8 mph 6.1 kmh
Wind Gusts 5.4 mph8.7 kmh 24.2 mph38.9 kmh - -
Humidity 65% 85% 49% 63%
Pressure 29.83 in1010.2 mb 29.93 in1013.5 mb 29.80 in1009.1 mb -
Hour Temp Dew Point Humidity Winds Wind Gusts Pressure Precip Precip Rate Daily Precip Total
07:50 PM 67.3°F19.6°C 55.1°F12.8°C 65% 2.7 mph ESE4.3 kmh ESE 5.4 mph8.7 kmh 29.83 in1010.2 mb 0.00 in0.0 mm 0.00 in0.0 mm 0.00 in0.0 mm
07:45 PM 67.6°F19.8°C 55.4°F13.0°C 65% 2.7 mph ESE4.3 kmh ESE 5.4 mph8.7 kmh 29.83 in1010.2 mb 0.00 in0.0 mm 0.00 in0.0 mm 0.00 in0.0 mm
07:40 PM 68.0°F20.0°C 54.9°F12.7°C 63% 2.2 mph ESE3.5 kmh ESE 6.3 mph10.1 kmh 29.83 in1010.2 mb 0.00 in0.0 mm 0.00 in0.0 mm 0.00 in0.0 mm
07:35 PM 68.4°F20.2°C 55.3°F12.9°C 63% 2.2 mph ESE3.5 kmh ESE 6.3 mph10.1 kmh 29.83 in1010.2 mb 0.00 in0.0 mm 0.00 in0.0 mm 0.00 in0.0 mm
07:30 PM 68.5°F20.3°C 55.0°F12.8°C 62% 2.7 mph ESE4.3 kmh ESE 5.4 mph8.7 kmh 29.83 in1010.2 mb 0.00 in0.0 mm 0.00 in0.0 mm 0.00 in0.0 mm
07:25 PM 68.9°F20.5°C 54.9°F12.7°C 61% 2.7 mph SE4.3 kmh SE 5.4 mph8.7 kmh 29.83 in1010.2 mb 0.00 in0.0 mm 0.00 in0.0 mm 0.00 in0.0 mm
07:20 PM 69.3°F20.7°C 55.3°F12.9°C 61% 2.2 mph ESE3.5 kmh ESE 5.4 mph8.7 kmh 29.83 in1010.2 mb 0.00 in0.0 mm 0.00 in0.0 mm 0.00 in0.0 mm
07:15 PM 69.4°F20.8°C 55.4°F13.0°C 61% 2.7 mph E4.3 kmh E 8.1 mph13.0 kmh 29.83 in1010.2 mb 0.00 in0.0 mm 0.00 in0.0 mm 0.00 in0.0 mm
07:10 PM 69.8°F21.0°C 55.3°F12.9°C 60% 3.1 mph E5.0 kmh E 8.1 mph13.0 kmh 29.82 in1009.8 mb 0.00 in0.0 mm 0.00 in0.0 mm 0.00 in0.0 mm
07:05 PM 70.0°F21.1°C 55.0°F12.8°C 59% 3.6 mph E5.8 kmh E 7.6 mph12.2 kmh 29.82 in1009.8 mb 0.00 in0.0 mm 0.00 in0.0 mm 0.00 in0.0 mm
07:00 PM 70.3°F21.3°C 55.3°F12.9°C 59% 3.6 mph E5.8 kmh E 7.2 mph11.6 kmh 29.81 in1009.5 mb 0.00 in0.0 mm 0.00 in0.0 mm 0.00 in0.0 mm
06:55 PM 70.9°F21.6°C 55.4°F13.0°C 58% 3.6 mph E5.8 kmh E 7.6 mph12.2 kmh 29.81 in1009.5 mb 0.00 in0.0 mm 0.00 in0.0 mm 0.00 in0.0 mm
06:50 PM 71.2°F21.8°C 55.2°F12.9°C 57% 3.6 mph E5.8 kmh E 8.1 mph13.0 kmh 29.81 in1009.5 mb 0.00 in0.0 mm 0.00 in0.0 mm 0.00 in0.0 mm
06:45 PM 72.5°F22.5°C 55.4°F13.0°C 55% 4.0 mph ESE6.4 kmh ESE 8.1 mph13.0 kmh 29.81 in1009.5 mb 0.00 in0.0 mm 0.00 in0.0 mm 0.00 in0.0 mm
06:40 PM 73.0°F22.8°C 55.9°F13.3°C 55% 3.6 mph E5.8 kmh E 9.9 mph15.9 kmh 29.81 in1009.5 mb 0.00 in0.0 mm 0.00 in0.0 mm 0.00 in0.0 mm
06:35 PM 73.8°F23.2°C 56.1°F13.4°C 54% 3.1 mph E5.0 kmh E 9.9 mph15.9 kmh 29.81 in1009.5 mb 0.00 in0.0 mm 0.00 in0.0 mm 0.00 in0.0 mm
06:30 PM 73.9°F23.3°C 56.2°F13.4°C 54% 3.6 mph ESE5.8 kmh ESE 9.9 mph15.9 kmh 29.81 in1009.5 mb 0.00 in0.0 mm 0.00 in0.0 mm 0.00 in0.0 mm
06:25 PM 73.8°F23.2°C 56.1°F13.4°C 54% 4.5 mph ESE7.2 kmh ESE 10.3 mph16.6 kmh 29.80 in1009.1 mb 0.00 in0.0 mm 0.00 in0.0 mm 0.00 in0.0 mm
06:20 PM 73.4°F23.0°C 55.7°F13.2°C 54% 4.0 mph E6.4 kmh E 10.3 mph16.6 kmh 29.81 in1009.5 mb 0.00 in0.0 mm 0.00 in0.0 mm 0.00 in0.0 mm
06:15 PM 73.2°F22.9°C 55.6°F13.1°C 54% 4.0 mph E6.4 kmh E 10.3 mph16.6 kmh 29.81 in1009.5 mb 0.00 in0.0 mm 0.00 in0.0 mm 0.00 in0.0 mm
06:10 PM 74.1°F23.4°C 56.4°F13.6°C 54% 4.0 mph E6.4 kmh E 9.0 mph14.5 kmh 29.81 in1009.5 mb 0.00 in0.0 mm 0.00 in0.0 mm 0.00 in0.0 mm
06:05 PM 74.7°F23.7°C 56.4°F13.6°C 53% 3.6 mph SE5.8 kmh SE 10.8 mph17.4 kmh 29.81 in1009.5 mb 0.00 in0.0 mm 0.00 in0.0 mm 0.00 in0.0 mm
06:00 PM 75.0°F23.9°C 56.7°F13.7°C 53% 3.6 mph ESE5.8 kmh ESE 10.8 mph17.4 kmh 29.81 in1009.5 mb 0.00 in0.0 mm 0.00 in0.0 mm 0.00 in0.0 mm
05:55 PM 74.3°F23.5°C 56.1°F13.4°C 53% 3.6 mph ESE5.8 kmh ESE 9.4 mph15.1 kmh 29.81 in1009.5 mb 0.00 in0.0 mm 0.00 in0.0 mm 0.00 in0.0 mm
05:50 PM 74.5°F23.6°C 56.2°F13.4°C 53% 3.6 mph SE5.8 kmh SE 8.5 mph13.7 kmh 29.81 in1009.5 mb 0.00 in0.0 mm 0.00 in0.0 mm 0.00 in0.0 mm
05:45 PM 75.2°F24.0°C 56.4°F13.6°C 52% 3.1 mph SE5.0 kmh SE 8.5 mph13.7 kmh 29.81 in1009.5 mb 0.00 in0.0 mm 0.00 in0.0 mm 0.00 in0.0 mm
05:40 PM 75.4°F24.1°C 56.5°F13.6°C 52% 3.1 mph SE5.0 kmh SE 8.5 mph13.7 kmh 29.81 in1009.5 mb 0.00 in0.0 mm 0.00 in0.0 mm 0.00 in0.0 mm
05:35 PM 75.7°F24.3°C 56.8°F13.8°C 52% 3.1 mph ESE5.0 kmh ESE 10.8 mph17.4 kmh 29.81 in1009.5 mb 0.00 in0.0 mm 0.00 in0.0 mm 0.00 in0.0 mm
05:30 PM 75.6°F24.2°C 56.7°F13.7°C 52% 3.1 mph ESE5.0 kmh ESE 10.8 mph17.4 kmh 29.81 in1009.5 mb 0.00 in0.0 mm 0.00 in0.0 mm 0.00 in0.0 mm
05:25 PM 75.6°F24.2°C 56.7°F13.7°C 52% 3.6 mph ESE5.8 kmh ESE 10.3 mph16.6 kmh 29.81 in1009.5 mb 0.00 in0.0 mm 0.00 in0.0 mm 0.00 in0.0 mm
05:20 PM 74.7°F23.7°C 55.9°F13.3°C 52% 4.0 mph ESE6.4 kmh ESE 10.3 mph16.6 kmh 29.81 in1009.5 mb 0.00 in0.0 mm 0.00 in0.0 mm 0.00 in0.0 mm
05:15 PM 74.8°F23.8°C 56.0°F13.3°C 52% 4.0 mph SE6.4 kmh SE 10.8 mph17.4 kmh 29.81 in1009.5 mb 0.00 in0.0 mm 0.00 in0.0 mm 0.00 in0.0 mm
05:10 PM 75.0°F23.9°C 56.2°F13.4°C 52% 4.5 mph SE7.2 kmh SE 13.9 mph22.4 kmh 29.81 in1009.5 mb 0.00 in0.0 mm 0.00 in0.0 mm 0.00 in0.0 mm
05:05 PM 75.4°F24.1°C 56.5°F13.6°C 52% 4.5 mph SE7.2 kmh SE 13.9 mph22.4 kmh 29.81 in1009.5 mb 0.00 in0.0 mm 0.00 in0.0 mm 0.00 in0.0 mm
05:00 PM 75.6°F24.2°C 56.7°F13.7°C 52% 4.5 mph SE7.2 kmh SE 10.8 mph17.4 kmh 29.81 in1009.5 mb 0.00 in0.0 mm 0.00 in0.0 mm 0.00 in0.0 mm
04:55 PM 75.9°F24.4°C 57.0°F13.9°C 52% 3.1 mph SE5.0 kmh SE 9.0 mph14.5 kmh 29.81 in1009.5 mb 0.00 in0.0 mm 0.00 in0.0 mm 0.00 in0.0 mm
04:50 PM 76.5°F24.7°C 56.5°F13.6°C 50% 3.6 mph SE5.8 kmh SE 9.9 mph15.9 kmh 29.81 in1009.5 mb 0.00 in0.0 mm 0.00 in0.0 mm 0.00 in0.0 mm
04:45 PM 76.5°F24.7°C 57.0°F13.9°C 51% 4.5 mph SE7.2 kmh SE 9.9 mph15.9 kmh 29.81 in1009.5 mb 0.00 in0.0 mm 0.00 in0.0 mm 0.00 in0.0 mm
04:40 PM 75.9°F24.4°C 56.5°F13.6°C 51% 4.0 mph SSE6.4 kmh SSE 10.3 mph16.6 kmh 29.81 in1009.5 mb 0.00 in0.0 mm 0.00 in0.0 mm 0.00 in0.0 mm
04:35 PM 76.6°F24.8°C 56.0°F13.3°C 49% 4.0 mph S6.4 kmh S 12.5 mph20.1 kmh 29.81 in1009.5 mb 0.00 in0.0 mm 0.00 in0.0 mm 0.00 in0.0 mm
04:30 PM 77.2°F25.1°C 57.7°F14.3°C 51% 4.5 mph S7.2 kmh S 13.0 mph20.9 kmh 29.81 in1009.5 mb 0.00 in0.0 mm 0.00 in0.0 mm 0.00 in0.0 mm
04:25 PM 76.6°F24.8°C 56.6°F13.7°C 50% 4.5 mph SE7.2 kmh SE 13.0 mph20.9 kmh 29.81 in1009.5 mb 0.00 in0.0 mm 0.00 in0.0 mm 0.00 in0.0 mm
04:20 PM 75.9°F24.4°C 56.5°F13.6°C 51% 4.0 mph SE6.4 kmh SE 13.0 mph20.9 kmh 29.81 in1009.5 mb 0.00 in0.0 mm 0.00 in0.0 mm 0.00 in0.0 mm
04:15 PM 75.9°F24.4°C 56.5°F13.6°C 51% 4.0 mph SE6.4 kmh SE 13.9 mph22.4 kmh 29.82 in1009.8 mb 0.00 in0.0 mm 0.00 in0.0 mm 0.00 in0.0 mm
04:10 PM 75.9°F24.4°C 56.5°F13.6°C 51% 4.5 mph SE7.2 kmh SE 13.9 mph22.4 kmh 29.81 in1009.5 mb 0.00 in0.0 mm 0.00 in0.0 mm 0.00 in0.0 mm
04:05 PM 76.6°F24.8°C 56.0°F13.3°C 49% 4.0 mph ESE6.4 kmh ESE 9.9 mph15.9 kmh 29.82 in1009.8 mb 0.00 in0.0 mm 0.00 in0.0 mm 0.00 in0.0 mm
04:00 PM 76.6°F24.8°C 56.0°F13.3°C 49% 4.0 mph ESE6.4 kmh ESE 9.4 mph15.1 kmh 29.82 in1009.8 mb 0.00 in0.0 mm 0.00 in0.0 mm 0.00 in0.0 mm
03:55 PM 76.8°F24.9°C 56.8°F13.8°C 50% 4.0 mph SE6.4 kmh SE 9.4 mph15.1 kmh 29.82 in1009.8 mb 0.00 in0.0 mm 0.00 in0.0 mm 0.00 in0.0 mm
03:50 PM 77.0°F25.0°C 56.9°F13.8°C 50% 4.5 mph SE7.2 kmh SE 11.2 mph18.0 kmh 29.82 in1009.8 mb 0.00 in0.0 mm 0.00 in0.0 mm 0.00 in0.0 mm
03:45 PM 76.5°F24.7°C 56.5°F13.6°C 50% 4.9 mph ESE7.9 kmh ESE 13.4 mph21.6 kmh 29.83 in1010.2 mb 0.00 in0.0 mm 0.00 in0.0 mm 0.00 in0.0 mm
03:40 PM 76.5°F24.7°C 56.5°F13.6°C 50% 4.9 mph SE7.9 kmh SE 23.3 mph37.5 kmh 29.83 in1010.2 mb 0.00 in0.0 mm 0.00 in0.0 mm 0.00 in0.0 mm
03:35 PM 77.0°F25.0°C 57.5°F14.2°C 51% 4.5 mph SE7.2 kmh SE 23.3 mph37.5 kmh 29.83 in1010.2 mb 0.00 in0.0 mm 0.00 in0.0 mm 0.00 in0.0 mm
03:30 PM 77.2°F25.1°C 57.1°F13.9°C 50% 4.5 mph SE7.2 kmh SE 11.2 mph18.0 kmh 29.83 in1010.2 mb 0.00 in0.0 mm 0.00 in0.0 mm 0.00 in0.0 mm
03:25 PM 77.7°F25.4°C 57.6°F14.2°C 50% 4.5 mph SE7.2 kmh SE 13.0 mph20.9 kmh 29.83 in1010.2 mb 0.00 in0.0 mm 0.00 in0.0 mm 0.00 in0.0 mm
03:20 PM 77.2°F25.1°C 57.1°F13.9°C 50% 4.0 mph SE6.4 kmh SE 13.0 mph20.9 kmh 29.83 in1010.2 mb 0.00 in0.0 mm 0.00 in0.0 mm 0.00 in0.0 mm
03:15 PM 76.8°F24.9°C 56.8°F13.8°C 50% 4.5 mph SE7.2 kmh SE 11.6 mph18.7 kmh 29.83 in1010.2 mb 0.00 in0.0 mm 0.00 in0.0 mm 0.00 in0.0 mm
03:10 PM 77.0°F25.0°C 56.9°F13.8°C 50% 4.5 mph SE7.2 kmh SE 13.0 mph20.9 kmh 29.84 in1010.5 mb 0.00 in0.0 mm 0.00 in0.0 mm 0.00 in0.0 mm
03:05 PM 77.4°F25.2°C 56.7°F13.7°C 49% 4.0 mph SE6.4 kmh SE 13.0 mph20.9 kmh 29.84 in1010.5 mb 0.00 in0.0 mm 0.00 in0.0 mm 0.00 in0.0 mm
03:00 PM 76.8°F24.9°C 57.3°F14.1°C 51% 4.9 mph ESE7.9 kmh ESE 14.8 mph23.8 kmh 29.84 in1010.5 mb 0.00 in0.0 mm 0.00 in0.0 mm 0.00 in0.0 mm
02:55 PM 76.1°F24.5°C 56.7°F13.7°C 51% 5.4 mph SE8.7 kmh SE 14.8 mph23.8 kmh 29.84 in1010.5 mb 0.00 in0.0 mm 0.00 in0.0 mm 0.00 in0.0 mm
02:50 PM 77.0°F25.0°C 56.9°F13.8°C 50% 4.5 mph SE7.2 kmh SE 12.1 mph19.5 kmh 29.84 in1010.5 mb 0.00 in0.0 mm 0.00 in0.0 mm 0.00 in0.0 mm
02:45 PM 77.0°F25.0°C 56.9°F13.8°C 50% 4.5 mph SE7.2 kmh SE 10.3 mph16.6 kmh 29.84 in1010.5 mb 0.00 in0.0 mm 0.00 in0.0 mm 0.00 in0.0 mm
02:40 PM 76.8°F24.9°C 56.2°F13.4°C 49% 4.5 mph SE7.2 kmh SE 13.4 mph21.6 kmh 29.84 in1010.5 mb 0.00 in0.0 mm 0.00 in0.0 mm 0.00 in0.0 mm
02:35 PM 76.5°F24.7°C 56.5°F13.6°C 50% 4.9 mph SE7.9 kmh SE 13.4 mph21.6 kmh 29.84 in1010.5 mb 0.00 in0.0 mm 0.00 in0.0 mm 0.00 in0.0 mm
02:30 PM 76.6°F24.8°C 56.6°F13.7°C 50% 4.9 mph SE7.9 kmh SE 10.8 mph17.4 kmh 29.84 in1010.5 mb 0.00 in0.0 mm 0.00 in0.0 mm 0.00 in0.0 mm
02:25 PM 76.6°F24.8°C 57.1°F13.9°C 51% 4.9 mph ESE7.9 kmh ESE 13.0 mph20.9 kmh 29.84 in1010.5 mb 0.00 in0.0 mm 0.00 in0.0 mm 0.00 in0.0 mm
02:20 PM 75.4°F24.1°C 56.0°F13.3°C 51% 4.9 mph E7.9 kmh E 13.0 mph20.9 kmh 29.84 in1010.5 mb 0.00 in0.0 mm 0.00 in0.0 mm 0.00 in0.0 mm
02:15 PM 76.1°F24.5°C 56.7°F13.7°C 51% 4.5 mph ESE7.2 kmh ESE 14.3 mph23.0 kmh 29.85 in1010.8 mb 0.00 in0.0 mm 0.00 in0.0 mm 0.00 in0.0 mm
02:10 PM 75.9°F24.4°C 55.9°F13.3°C 50% 5.4 mph E8.7 kmh E 18.8 mph30.3 kmh 29.85 in1010.8 mb 0.00 in0.0 mm 0.00 in0.0 mm 0.00 in0.0 mm
02:05 PM 75.4°F24.1°C 56.5°F13.6°C 52% 5.4 mph E8.7 kmh E 18.8 mph30.3 kmh 29.85 in1010.8 mb 0.00 in0.0 mm 0.00 in0.0 mm 0.00 in0.0 mm
02:00 PM 75.2°F24.0°C 55.8°F13.2°C 51% 4.9 mph ESE7.9 kmh ESE 10.3 mph16.6 kmh 29.85 in1010.8 mb 0.00 in0.0 mm 0.00 in0.0 mm 0.00 in0.0 mm
01:55 PM 75.2°F24.0°C 56.4°F13.6°C 52% 4.9 mph ESE7.9 kmh ESE 11.2 mph18.0 kmh 29.86 in1011.2 mb 0.00 in0.0 mm 0.00 in0.0 mm 0.00 in0.0 mm
01:50 PM 76.1°F24.5°C 56.7°F13.7°C 51% 4.9 mph ESE7.9 kmh ESE 16.1 mph25.9 kmh 29.86 in1011.2 mb 0.00 in0.0 mm 0.00 in0.0 mm 0.00 in0.0 mm
01:45 PM 75.4°F24.1°C 57.1°F13.9°C 53% 5.8 mph E9.3 kmh E 24.2 mph38.9 kmh 29.86 in1011.2 mb 0.00 in0.0 mm 0.00 in0.0 mm 0.00 in0.0 mm
01:40 PM 74.1°F23.4°C 55.3°F12.9°C 52% 5.4 mph E8.7 kmh E 24.2 mph38.9 kmh 29.86 in1011.2 mb 0.00 in0.0 mm 0.00 in0.0 mm 0.00 in0.0 mm
01:35 PM 74.8°F23.8°C 56.5°F13.6°C 53% 5.4 mph SE8.7 kmh SE 11.6 mph18.7 kmh 29.86 in1011.2 mb 0.00 in0.0 mm 0.00 in0.0 mm 0.00 in0.0 mm
01:30 PM 73.9°F23.3°C 55.7°F13.2°C 53% 5.8 mph ESE9.3 kmh ESE 14.3 mph23.0 kmh 29.86 in1011.2 mb 0.00 in0.0 mm 0.00 in0.0 mm 0.00 in0.0 mm
01:25 PM 73.8°F23.2°C 55.6°F13.1°C 53% 5.8 mph ESE9.3 kmh ESE 14.8 mph23.8 kmh 29.86 in1011.2 mb 0.00 in0.0 mm 0.00 in0.0 mm 0.00 in0.0 mm
01:20 PM 73.6°F23.1°C 56.4°F13.6°C 55% 5.4 mph E8.7 kmh E 16.6 mph26.7 kmh 29.86 in1011.2 mb 0.00 in0.0 mm 0.00 in0.0 mm 0.00 in0.0 mm
01:15 PM 74.1°F23.4°C 56.4°F13.6°C 54% 4.9 mph E7.9 kmh E 16.6 mph26.7 kmh 29.87 in1011.5 mb 0.00 in0.0 mm 0.00 in0.0 mm 0.00 in0.0 mm
01:10 PM 73.6°F23.1°C 55.9°F13.3°C 54% 4.9 mph SE7.9 kmh SE 11.6 mph18.7 kmh 29.87 in1011.5 mb 0.00 in0.0 mm 0.00 in0.0 mm 0.00 in0.0 mm
01:05 PM 74.1°F23.4°C 56.4°F13.6°C 54% 4.9 mph ESE7.9 kmh ESE 12.1 mph19.5 kmh 29.86 in1011.2 mb 0.00 in0.0 mm 0.00 in0.0 mm 0.00 in0.0 mm
01:00 PM 73.2°F22.9°C 55.6°F13.1°C 54% 5.8 mph E9.3 kmh E 12.5 mph20.1 kmh 29.87 in1011.5 mb 0.00 in0.0 mm 0.00 in0.0 mm 0.00 in0.0 mm
12:55 PM 73.2°F22.9°C 56.1°F13.4°C 55% 5.8 mph E9.3 kmh E 19.3 mph31.1 kmh 29.87 in1011.5 mb 0.00 in0.0 mm 0.00 in0.0 mm 0.00 in0.0 mm
12:50 PM 73.2°F22.9°C 56.1°F13.4°C 55% 5.4 mph E8.7 kmh E 19.3 mph31.1 kmh 29.87 in1011.5 mb 0.00 in0.0 mm 0.00 in0.0 mm 0.00 in0.0 mm
12:45 PM 73.6°F23.1°C 55.9°F13.3°C 54% 5.4 mph ESE8.7 kmh ESE 19.3 mph31.1 kmh 29.88 in1011.9 mb 0.00 in0.0 mm 0.00 in0.0 mm 0.00 in0.0 mm
12:40 PM 73.2°F22.9°C 56.1°F13.4°C 55% 5.4 mph SE8.7 kmh SE 12.5 mph20.1 kmh 29.88 in1011.9 mb 0.00 in0.0 mm 0.00 in0.0 mm 0.00 in0.0 mm
12:35 PM 73.6°F23.1°C 56.9°F13.8°C 56% 4.9 mph ESE7.9 kmh ESE 15.2 mph24.5 kmh 29.87 in1011.5 mb 0.00 in0.0 mm 0.00 in0.0 mm 0.00 in0.0 mm
12:30 PM 72.1°F22.3°C 55.5°F13.1°C 56% 5.8 mph E9.3 kmh E 15.2 mph24.5 kmh 29.88 in1011.9 mb 0.00 in0.0 mm 0.00 in0.0 mm 0.00 in0.0 mm
12:25 PM 72.1°F22.3°C 55.5°F13.1°C 56% 5.4 mph E8.7 kmh E 14.3 mph23.0 kmh 29.88 in1011.9 mb 0.00 in0.0 mm 0.00 in0.0 mm 0.00 in0.0 mm
12:20 PM 72.9°F22.7°C 56.3°F13.5°C 56% 5.4 mph E8.7 kmh E 18.4 mph29.6 kmh 29.88 in1011.9 mb 0.00 in0.0 mm 0.00 in0.0 mm 0.00 in0.0 mm
12:15 PM 72.3°F22.4°C 55.7°F13.2°C 56% 5.8 mph ESE9.3 kmh ESE 18.4 mph29.6 kmh 29.88 in1011.9 mb 0.00 in0.0 mm 0.00 in0.0 mm 0.00 in0.0 mm
12:10 PM 72.3°F22.4°C 55.2°F12.9°C 55% 5.8 mph SE9.3 kmh SE 14.3 mph23.0 kmh 29.89 in1012.2 mb 0.00 in0.0 mm 0.00 in0.0 mm 0.00 in0.0 mm
12:05 PM 72.9°F22.7°C 55.8°F13.2°C 55% 5.4 mph ESE8.7 kmh ESE 14.3 mph23.0 kmh 29.88 in1011.9 mb 0.00 in0.0 mm 0.00 in0.0 mm 0.00 in0.0 mm
12:00 PM 73.2°F22.9°C 56.1°F13.4°C 55% 5.4 mph SE8.7 kmh SE 12.5 mph20.1 kmh 29.88 in1011.9 mb 0.00 in0.0 mm 0.00 in0.0 mm 0.00 in0.0 mm
11:55 AM 72.9°F22.7°C 55.8°F13.2°C 55% 5.8 mph SE9.3 kmh SE 17.0 mph27.4 kmh 29.89 in1012.2 mb 0.00 in0.0 mm 0.00 in0.0 mm 0.00 in0.0 mm
11:50 AM 73.2°F22.9°C 56.1°F13.4°C 55% 4.9 mph ESE7.9 kmh ESE 17.0 mph27.4 kmh 29.89 in1012.2 mb 0.00 in0.0 mm 0.00 in0.0 mm 0.00 in0.0 mm
11:45 AM 73.4°F23.0°C 56.2°F13.4°C 55% 4.5 mph ESE7.2 kmh ESE 13.4 mph21.6 kmh 29.89 in1012.2 mb 0.00 in0.0 mm 0.00 in0.0 mm 0.00 in0.0 mm
11:40 AM 72.5°F22.5°C 54.9°F12.7°C 54% 5.4 mph SE8.7 kmh SE 13.4 mph21.6 kmh 29.89 in1012.2 mb 0.00 in0.0 mm 0.00 in0.0 mm 0.00 in0.0 mm
11:35 AM 72.3°F22.4°C 55.2°F12.9°C 55% 5.8 mph SE9.3 kmh SE 14.3 mph23.0 kmh 29.89 in1012.2 mb 0.00 in0.0 mm 0.00 in0.0 mm 0.00 in0.0 mm
11:30 AM 72.1°F22.3°C 55.0°F12.8°C 55% 4.9 mph SE7.9 kmh SE 14.3 mph23.0 kmh 29.90 in1012.5 mb 0.00 in0.0 mm 0.00 in0.0 mm 0.00 in0.0 mm
11:25 AM 73.4°F23.0°C 55.7°F13.2°C 54% 4.0 mph ESE6.4 kmh ESE 10.8 mph17.4 kmh 29.90 in1012.5 mb 0.00 in0.0 mm 0.00 in0.0 mm 0.00 in0.0 mm
11:20 AM 71.8°F22.1°C 56.2°F13.4°C 58% 4.5 mph SE7.2 kmh SE 13.0 mph20.9 kmh 29.90 in1012.5 mb 0.00 in0.0 mm 0.00 in0.0 mm 0.00 in0.0 mm
11:15 AM 70.5°F21.4°C 54.5°F12.5°C 57% 4.9 mph SE7.9 kmh SE 13.0 mph20.9 kmh 29.90 in1012.5 mb 0.00 in0.0 mm 0.00 in0.0 mm 0.00 in0.0 mm
11:10 AM 71.4°F21.9°C 54.9°F12.7°C 56% 4.9 mph ESE7.9 kmh ESE 14.8 mph23.8 kmh 29.90 in1012.5 mb 0.00 in0.0 mm 0.00 in0.0 mm 0.00 in0.0 mm
11:05 AM 72.0°F22.2°C 55.4°F13.0°C 56% 6.3 mph E10.1 kmh E 16.6 mph26.7 kmh 29.90 in1012.5 mb 0.00 in0.0 mm 0.00 in0.0 mm 0.00 in0.0 mm
11:00 AM 71.2°F21.8°C 55.7°F13.2°C 58% 6.3 mph E10.1 kmh E 16.6 mph26.7 kmh 29.90 in1012.5 mb 0.00 in0.0 mm 0.00 in0.0 mm 0.00 in0.0 mm
10:55 AM 71.1°F21.7°C 55.1°F12.8°C 57% 5.8 mph SE9.3 kmh SE 21.1 mph34.0 kmh 29.91 in1012.9 mb 0.00 in0.0 mm 0.00 in0.0 mm 0.00 in0.0 mm
10:50 AM 71.1°F21.7°C 54.1°F12.3°C 55% 5.8 mph SE9.3 kmh SE 21.1 mph34.0 kmh 29.90 in1012.5 mb 0.00 in0.0 mm 0.00 in0.0 mm 0.00 in0.0 mm
10:45 AM 70.9°F21.6°C 53.9°F12.2°C 55% 5.8 mph SE9.3 kmh SE 16.1 mph25.9 kmh 29.91 in1012.9 mb 0.00 in0.0 mm 0.00 in0.0 mm 0.00 in0.0 mm
10:40 AM 70.9°F21.6°C 54.4°F12.4°C 56% 5.8 mph SE9.3 kmh SE 15.7 mph25.3 kmh 29.91 in1012.9 mb 0.00 in0.0 mm 0.00 in0.0 mm 0.00 in0.0 mm
10:35 AM 70.9°F21.6°C 54.4°F12.4°C 56% 5.8 mph ESE9.3 kmh ESE 12.5 mph20.1 kmh 29.91 in1012.9 mb 0.00 in0.0 mm 0.00 in0.0 mm 0.00 in0.0 mm
10:30 AM 70.5°F21.4°C 54.0°F12.2°C 56% 5.4 mph E8.7 kmh E 14.3 mph23.0 kmh 29.91 in1012.9 mb 0.00 in0.0 mm 0.00 in0.0 mm 0.00 in0.0 mm
10:25 AM 70.9°F21.6°C 54.4°F12.4°C 56% 5.4 mph E8.7 kmh E 17.5 mph28.2 kmh 29.91 in1012.9 mb 0.00 in0.0 mm 0.00 in0.0 mm 0.00 in0.0 mm
10:20 AM 71.6°F22.0°C 55.6°F13.1°C 57% 5.4 mph E8.7 kmh E 17.5 mph28.2 kmh 29.91 in1012.9 mb 0.00 in0.0 mm 0.00 in0.0 mm 0.00 in0.0 mm
10:15 AM 69.8°F21.0°C 53.9°F12.2°C 57% 5.4 mph ESE8.7 kmh ESE 15.2 mph24.5 kmh 29.91 in1012.9 mb 0.00 in0.0 mm 0.00 in0.0 mm 0.00 in0.0 mm
10:10 AM 70.2°F21.2°C 54.2°F12.3°C 57% 5.8 mph ESE9.3 kmh ESE 15.7 mph25.3 kmh 29.91 in1012.9 mb 0.00 in0.0 mm 0.00 in0.0 mm 0.00 in0.0 mm
10:05 AM 69.3°F20.7°C 53.9°F12.2°C 58% 5.4 mph ESE8.7 kmh ESE 15.7 mph25.3 kmh 29.91 in1012.9 mb 0.00 in0.0 mm 0.00 in0.0 mm 0.00 in0.0 mm
10:00 AM 70.7°F21.5°C 54.7°F12.6°C 57% 4.9 mph SE7.9 kmh SE 13.4 mph21.6 kmh 29.91 in1012.9 mb 0.00 in0.0 mm 0.00 in0.0 mm 0.00 in0.0 mm
09:55 AM 69.4°F20.8°C 54.0°F12.2°C 58% 5.4 mph ESE8.7 kmh ESE 13.4 mph21.6 kmh 29.91 in1012.9 mb 0.00 in0.0 mm 0.00 in0.0 mm 0.00 in0.0 mm
09:50 AM 69.4°F20.8°C 53.5°F11.9°C 57% 4.9 mph ESE7.9 kmh ESE 13.4 mph21.6 kmh 29.91 in1012.9 mb 0.00 in0.0 mm 0.00 in0.0 mm 0.00 in0.0 mm
09:45 AM 68.9°F20.5°C 53.5°F11.9°C 58% 5.4 mph SE8.7 kmh SE 13.4 mph21.6 kmh 29.92 in1013.2 mb 0.00 in0.0 mm 0.00 in0.0 mm 0.00 in0.0 mm
09:40 AM 69.6°F20.9°C 53.7°F12.1°C 57% 5.8 mph SE9.3 kmh SE 15.7 mph25.3 kmh 29.92 in1013.2 mb 0.00 in0.0 mm 0.00 in0.0 mm 0.00 in0.0 mm
09:35 AM 69.1°F20.6°C 53.7°F12.1°C 58% 5.4 mph ESE8.7 kmh ESE 15.7 mph25.3 kmh 29.92 in1013.2 mb 0.00 in0.0 mm 0.00 in0.0 mm 0.00 in0.0 mm
09:30 AM 69.8°F21.0°C 54.4°F12.4°C 58% 4.5 mph SE7.2 kmh SE 13.9 mph22.4 kmh 29.92 in1013.2 mb 0.00 in0.0 mm 0.00 in0.0 mm 0.00 in0.0 mm
09:25 AM 68.9°F20.5°C 53.5°F11.9°C 58% 4.5 mph SE7.2 kmh SE 13.0 mph20.9 kmh 29.92 in1013.2 mb 0.00 in0.0 mm 0.00 in0.0 mm 0.00 in0.0 mm
09:20 AM 68.9°F20.5°C 53.5°F11.9°C 58% 4.5 mph SE7.2 kmh SE 10.8 mph17.4 kmh 29.92 in1013.2 mb 0.00 in0.0 mm 0.00 in0.0 mm 0.00 in0.0 mm
09:15 AM 68.4°F20.2°C 53.5°F11.9°C 59% 5.4 mph SE8.7 kmh SE 17.9 mph28.8 kmh 29.92 in1013.2 mb 0.00 in0.0 mm 0.00 in0.0 mm 0.00 in0.0 mm
09:10 AM 68.4°F20.2°C 53.5°F11.9°C 59% 5.4 mph SE8.7 kmh SE 17.9 mph28.8 kmh 29.92 in1013.2 mb 0.00 in0.0 mm 0.00 in0.0 mm 0.00 in0.0 mm
09:05 AM 68.2°F20.1°C 53.3°F11.8°C 59% 5.8 mph SE9.3 kmh SE 14.3 mph23.0 kmh 29.92 in1013.2 mb 0.00 in0.0 mm 0.00 in0.0 mm 0.00 in0.0 mm
09:00 AM 67.6°F19.8°C 52.8°F11.6°C 59% 5.4 mph SE8.7 kmh SE 14.3 mph23.0 kmh 29.92 in1013.2 mb 0.00 in0.0 mm 0.00 in0.0 mm 0.00 in0.0 mm
08:55 AM 67.6°F19.8°C 52.8°F11.6°C 59% 4.5 mph SE7.2 kmh SE 13.9 mph22.4 kmh 29.92 in1013.2 mb 0.00 in0.0 mm 0.00 in0.0 mm 0.00 in0.0 mm
08:50 AM 68.0°F20.0°C 53.1°F11.7°C 59% 4.5 mph SE7.2 kmh SE 14.8 mph23.8 kmh 29.92 in1013.2 mb 0.00 in0.0 mm 0.00 in0.0 mm 0.00 in0.0 mm
08:45 AM 67.6°F19.8°C 54.1°F12.3°C 62% 4.9 mph ESE7.9 kmh ESE 14.8 mph23.8 kmh 29.92 in1013.2 mb 0.00 in0.0 mm 0.00 in0.0 mm 0.00 in0.0 mm
08:40 AM 66.9°F19.4°C 53.0°F11.7°C 61% 4.9 mph ESE7.9 kmh ESE 11.6 mph18.7 kmh 29.92 in1013.2 mb 0.00 in0.0 mm 0.00 in0.0 mm 0.00 in0.0 mm
08:35 AM 67.1°F19.5°C 53.2°F11.8°C 61% 4.9 mph ESE7.9 kmh ESE 13.4 mph21.6 kmh 29.92 in1013.2 mb 0.00 in0.0 mm 0.00 in0.0 mm 0.00 in0.0 mm
08:30 AM 66.4°F19.1°C 53.0°F11.7°C 62% 5.4 mph ESE8.7 kmh ESE 13.4 mph21.6 kmh 29.92 in1013.2 mb 0.00 in0.0 mm 0.00 in0.0 mm 0.00 in0.0 mm
08:25 AM 66.6°F19.2°C 53.2°F11.8°C 62% 4.9 mph SE7.9 kmh SE 13.4 mph21.6 kmh 29.93 in1013.5 mb 0.00 in0.0 mm 0.00 in0.0 mm 0.00 in0.0 mm
08:20 AM 66.2°F19.0°C 53.2°F11.8°C 63% 4.0 mph SE6.4 kmh SE 13.4 mph21.6 kmh 29.93 in1013.5 mb 0.00 in0.0 mm 0.00 in0.0 mm 0.00 in0.0 mm
08:15 AM 66.6°F19.2°C 53.6°F12.0°C 63% 4.0 mph SE6.4 kmh SE 13.0 mph20.9 kmh 29.93 in1013.5 mb 0.00 in0.0 mm 0.00 in0.0 mm 0.00 in0.0 mm
08:10 AM 66.0°F18.9°C 53.5°F11.9°C 64% 4.9 mph SE7.9 kmh SE 13.0 mph20.9 kmh 29.92 in1013.2 mb 0.00 in0.0 mm 0.00 in0.0 mm 0.00 in0.0 mm
08:05 AM 66.0°F18.9°C 53.5°F11.9°C 64% 4.9 mph SE7.9 kmh SE 17.9 mph28.8 kmh 29.92 in1013.2 mb 0.00 in0.0 mm 0.00 in0.0 mm 0.00 in0.0 mm
08:00 AM 66.0°F18.9°C 53.9°F12.2°C 65% 4.9 mph SE7.9 kmh SE 19.3 mph31.1 kmh 29.92 in1013.2 mb 0.00 in0.0 mm 0.00 in0.0 mm 0.00 in0.0 mm
07:55 AM 65.3°F18.5°C 53.2°F11.8°C 65% 5.4 mph SE8.7 kmh SE 19.3 mph31.1 kmh 29.92 in1013.2 mb 0.00 in0.0 mm 0.00 in0.0 mm 0.00 in0.0 mm
07:50 AM 64.8°F18.2°C 52.3°F11.3°C 64% 5.4 mph SE8.7 kmh SE 17.5 mph28.2 kmh 29.92 in1013.2 mb 0.00 in0.0 mm 0.00 in0.0 mm 0.00 in0.0 mm
07:45 AM 65.5°F18.6°C 52.6°F11.4°C 63% 5.4 mph SE8.7 kmh SE 15.2 mph24.5 kmh 29.92 in1013.2 mb 0.00 in0.0 mm 0.00 in0.0 mm 0.00 in0.0 mm
07:40 AM 66.6°F19.2°C 52.7°F11.5°C 61% 5.4 mph SE8.7 kmh SE 15.2 mph24.5 kmh 29.92 in1013.2 mb 0.00 in0.0 mm 0.00 in0.0 mm 0.00 in0.0 mm
07:35 AM 67.6°F19.8°C 51.8°F11.0°C 57% 5.4 mph SSE8.7 kmh SSE 11.6 mph18.7 kmh 29.92 in1013.2 mb 0.00 in0.0 mm 0.00 in0.0 mm 0.00 in0.0 mm
07:30 AM 68.5°F20.3°C 52.7°F11.5°C 57% 5.4 mph SSE8.7 kmh SSE 10.8 mph17.4 kmh 29.92 in1013.2 mb 0.00 in0.0 mm 0.00 in0.0 mm 0.00 in0.0 mm
07:25 AM 68.4°F20.2°C 52.6°F11.4°C 57% 5.4 mph SE8.7 kmh SE 11.2 mph18.0 kmh 29.93 in1013.5 mb 0.00 in0.0 mm 0.00 in0.0 mm 0.00 in0.0 mm
07:20 AM 68.4°F20.2°C 52.6°F11.4°C 57% 4.5 mph SE7.2 kmh SE 11.2 mph18.0 kmh 29.92 in1013.2 mb 0.00 in0.0 mm 0.00 in0.0 mm 0.00 in0.0 mm
07:15 AM 70.2°F21.2°C 54.2°F12.3°C 57% 3.6 mph ESE5.8 kmh ESE 9.4 mph15.1 kmh 29.92 in1013.2 mb 0.00 in0.0 mm 0.00 in0.0 mm 0.00 in0.0 mm
07:10 AM 68.7°F20.4°C 53.3°F11.8°C 58% 4.0 mph SE6.4 kmh SE 9.4 mph15.1 kmh 29.92 in1013.2 mb 0.00 in0.0 mm 0.00 in0.0 mm 0.00 in0.0 mm
07:05 AM 68.0°F20.0°C 52.7°F11.5°C 58% 4.0 mph SE6.4 kmh SE 9.9 mph15.9 kmh 29.92 in1013.2 mb 0.00 in0.0 mm 0.00 in0.0 mm 0.00 in0.0 mm
07:00 AM 69.1°F20.6°C 52.7°F11.5°C 56% 3.6 mph SE5.8 kmh SE 9.9 mph15.9 kmh 29.92 in1013.2 mb 0.00 in0.0 mm 0.00 in0.0 mm 0.00 in0.0 mm
06:55 AM 68.7°F20.4°C 52.4°F11.3°C 56% 3.6 mph SE5.8 kmh SE 10.8 mph17.4 kmh 29.91 in1012.9 mb 0.00 in0.0 mm 0.00 in0.0 mm 0.00 in0.0 mm
06:50 AM 67.8°F19.9°C 52.0°F11.1°C 57% 4.0 mph ESE6.4 kmh ESE 10.8 mph17.4 kmh 29.91 in1012.9 mb 0.00 in0.0 mm 0.00 in0.0 mm 0.00 in0.0 mm
06:45 AM 68.4°F20.2°C 52.6°F11.4°C 57% 3.6 mph ESE5.8 kmh ESE 14.3 mph23.0 kmh 29.91 in1012.9 mb 0.00 in0.0 mm 0.00 in0.0 mm 0.00 in0.0 mm
06:40 AM 68.4°F20.2°C 52.6°F11.4°C 57% 3.1 mph SE5.0 kmh SE 14.3 mph23.0 kmh 29.91 in1012.9 mb 0.00 in0.0 mm 0.00 in0.0 mm 0.00 in0.0 mm
06:35 AM 69.1°F20.6°C 53.2°F11.8°C 57% 3.1 mph SE5.0 kmh SE 9.0 mph14.5 kmh 29.91 in1012.9 mb 0.00 in0.0 mm 0.00 in0.0 mm 0.00 in0.0 mm
06:30 AM 68.0°F20.0°C 53.6°F12.0°C 60% 4.0 mph ESE6.4 kmh ESE 13.4 mph21.6 kmh 29.91 in1012.9 mb 0.00 in0.0 mm 0.00 in0.0 mm 0.00 in0.0 mm
06:25 AM 66.9°F19.4°C 53.0°F11.7°C 61% 4.0 mph E6.4 kmh E 13.4 mph21.6 kmh 29.91 in1012.9 mb 0.00 in0.0 mm 0.00 in0.0 mm 0.00 in0.0 mm
06:20 AM 67.1°F19.5°C 52.3°F11.3°C 59% 3.6 mph E5.8 kmh E 11.2 mph18.0 kmh 29.91 in1012.9 mb 0.00 in0.0 mm 0.00 in0.0 mm 0.00 in0.0 mm
06:15 AM 66.2°F19.0°C 52.3°F11.3°C 61% 3.6 mph ESE5.8 kmh ESE 7.2 mph11.6 kmh 29.91 in1012.9 mb 0.00 in0.0 mm 0.00 in0.0 mm 0.00 in0.0 mm
06:10 AM 65.8°F18.8°C 52.9°F11.6°C 63% 3.6 mph ENE5.8 kmh ENE 4.0 mph6.4 kmh 29.91 in1012.9 mb 0.00 in0.0 mm 0.00 in0.0 mm 0.00 in0.0 mm
06:05 AM 65.8°F18.8°C 53.3°F11.8°C 64% 3.1 mph E5.0 kmh E 4.0 mph6.4 kmh 29.91 in1012.9 mb 0.00 in0.0 mm 0.00 in0.0 mm 0.00 in0.0 mm
06:00 AM 64.8°F18.2°C 53.2°F11.8°C 66% 3.6 mph E5.8 kmh E 4.0 mph6.4 kmh 29.91 in1012.9 mb 0.00 in0.0 mm 0.00 in0.0 mm 0.00 in0.0 mm
05:55 AM 63.9°F17.7°C 53.5°F11.9°C 69% 3.6 mph ENE5.8 kmh ENE 4.0 mph6.4 kmh 29.91 in1012.9 mb 0.00 in0.0 mm 0.00 in0.0 mm 0.00 in0.0 mm
05:50 AM 62.6°F17.0°C 52.7°F11.5°C 70% 2.7 mph E4.3 kmh E 4.0 mph6.4 kmh 29.91 in1012.9 mb 0.00 in0.0 mm 0.00 in0.0 mm 0.00 in0.0 mm
05:45 AM 64.0°F17.8°C 54.0°F12.2°C 70% 2.2 mph SE3.5 kmh SE 4.0 mph6.4 kmh 29.91 in1012.9 mb 0.00 in0.0 mm 0.00 in0.0 mm 0.00 in0.0 mm
05:40 AM 61.7°F16.5°C 53.3°F11.8°C 74% 2.2 mph SE3.5 kmh SE 4.0 mph6.4 kmh 29.91 in1012.9 mb 0.00 in0.0 mm 0.00 in0.0 mm 0.00 in0.0 mm
05:35 AM 60.4°F15.8°C 53.2°F11.8°C 77% 2.2 mph E3.5 kmh E 3.1 mph5.0 kmh 29.91 in1012.9 mb 0.00 in0.0 mm 0.00 in0.0 mm 0.00 in0.0 mm
05:30 AM 59.5°F15.3°C 53.0°F11.7°C 79% 2.2 mph E3.5 kmh E 5.4 mph8.7 kmh 29.91 in1012.9 mb 0.00 in0.0 mm 0.00 in0.0 mm 0.00 in0.0 mm
05:25 AM 59.4°F15.2°C 52.9°F11.6°C 79% 3.1 mph E5.0 kmh E 5.4 mph8.7 kmh 29.91 in1012.9 mb 0.00 in0.0 mm 0.00 in0.0 mm 0.00 in0.0 mm
05:20 AM 59.0°F15.0°C 52.8°F11.6°C 80% 3.1 mph ENE5.0 kmh ENE 5.4 mph8.7 kmh 29.91 in1012.9 mb 0.00 in0.0 mm 0.00 in0.0 mm 0.00 in0.0 mm
05:15 AM 58.8°F14.9°C 53.0°F11.7°C 81% 3.1 mph ENE5.0 kmh ENE 4.9 mph7.9 kmh 29.91 in1012.9 mb 0.00 in0.0 mm 0.00 in0.0 mm 0.00 in0.0 mm
05:10 AM 58.6°F14.8°C 52.8°F11.6°C 81% 2.7 mph NE4.3 kmh NE 2.2 mph3.5 kmh 29.91 in1012.9 mb 0.00 in0.0 mm 0.00 in0.0 mm 0.00 in0.0 mm
05:05 AM 58.6°F14.8°C 52.8°F11.6°C 81% 2.2 mph E3.5 kmh E 3.6 mph5.8 kmh 29.91 in1012.9 mb 0.00 in0.0 mm 0.00 in0.0 mm 0.00 in0.0 mm
05:00 AM 58.6°F14.8°C 52.8°F11.6°C 81% 2.7 mph E4.3 kmh E 3.6 mph5.8 kmh 29.91 in1012.9 mb 0.00 in0.0 mm 0.00 in0.0 mm 0.00 in0.0 mm
04:55 AM 58.6°F14.8°C 52.8°F11.6°C 81% 2.7 mph ENE4.3 kmh ENE 3.6 mph5.8 kmh 29.91 in1012.9 mb 0.00 in0.0 mm 0.00 in0.0 mm 0.00 in0.0 mm
04:50 AM 58.5°F14.7°C 53.0°F11.7°C 82% 2.2 mph ENE3.5 kmh ENE 3.1 mph5.0 kmh 29.91 in1012.9 mb 0.00 in0.0 mm 0.00 in0.0 mm 0.00 in0.0 mm
04:45 AM 58.3°F14.6°C 52.8°F11.6°C 82% 2.2 mph ENE3.5 kmh ENE 3.1 mph5.0 kmh 29.91 in1012.9 mb 0.00 in0.0 mm 0.00 in0.0 mm 0.00 in0.0 mm
04:40 AM 58.3°F14.6°C 53.2°F11.8°C 83% 2.2 mph ESE3.5 kmh ESE 5.4 mph8.7 kmh 29.91 in1012.9 mb 0.00 in0.0 mm 0.00 in0.0 mm 0.00 in0.0 mm
04:35 AM 58.3°F14.6°C 53.2°F11.8°C 83% 2.2 mph E3.5 kmh E 5.4 mph8.7 kmh 29.90 in1012.5 mb 0.00 in0.0 mm 0.00 in0.0 mm 0.00 in0.0 mm
04:30 AM 58.1°F14.5°C 53.0°F11.7°C 83% 2.2 mph ENE3.5 kmh ENE 5.4 mph8.7 kmh 29.91 in1012.9 mb 0.00 in0.0 mm 0.00 in0.0 mm 0.00 in0.0 mm
04:25 AM 58.3°F14.6°C 53.2°F11.8°C 83% 2.2 mph E3.5 kmh E 3.1 mph5.0 kmh 29.90 in1012.5 mb 0.00 in0.0 mm 0.00 in0.0 mm 0.00 in0.0 mm
04:20 AM 58.1°F14.5°C 53.0°F11.7°C 83% 1.8 mph E2.9 kmh E 3.1 mph5.0 kmh 29.91 in1012.9 mb 0.00 in0.0 mm 0.00 in0.0 mm 0.00 in0.0 mm
04:15 AM 57.7°F14.3°C 52.9°F11.6°C 84% 1.8 mph SE2.9 kmh SE 2.7 mph4.3 kmh 29.91 in1012.9 mb 0.00 in0.0 mm 0.00 in0.0 mm 0.00 in0.0 mm
04:10 AM 57.9°F14.4°C 53.1°F11.7°C 84% 2.7 mph E4.3 kmh E 3.6 mph5.8 kmh 29.91 in1012.9 mb 0.00 in0.0 mm 0.00 in0.0 mm 0.00 in0.0 mm
04:05 AM 57.7°F14.3°C 52.9°F11.6°C 84% 3.6 mph NE5.8 kmh NE 3.6 mph5.8 kmh 29.91 in1012.9 mb 0.00 in0.0 mm 0.00 in0.0 mm 0.00 in0.0 mm
04:00 AM 57.7°F14.3°C 52.9°F11.6°C 84% 4.0 mph ENE6.4 kmh ENE 3.6 mph5.8 kmh 29.91 in1012.9 mb 0.00 in0.0 mm 0.00 in0.0 mm 0.00 in0.0 mm
03:55 AM 57.9°F14.4°C 53.1°F11.7°C 84% 3.1 mph ESE5.0 kmh ESE 3.1 mph5.0 kmh 29.91 in1012.9 mb 0.00 in0.0 mm 0.00 in0.0 mm 0.00 in0.0 mm
03:50 AM 57.7°F14.3°C 52.9°F11.6°C 84% 2.7 mph SSE4.3 kmh SSE 2.7 mph4.3 kmh 29.91 in1012.9 mb 0.00 in0.0 mm 0.00 in0.0 mm 0.00 in0.0 mm
03:45 AM 57.6°F14.2°C 53.1°F11.7°C 85% 1.8 mph ENE2.9 kmh ENE 2.2 mph3.5 kmh 29.91 in1012.9 mb 0.00 in0.0 mm 0.00 in0.0 mm 0.00 in0.0 mm
03:40 AM 57.6°F14.2°C 53.1°F11.7°C 85% 1.8 mph ENE2.9 kmh ENE 2.2 mph3.5 kmh 29.91 in1012.9 mb 0.00 in0.0 mm 0.00 in0.0 mm 0.00 in0.0 mm
03:35 AM 57.6°F14.2°C 53.1°F11.7°C 85% 1.8 mph ENE2.9 kmh ENE 2.2 mph3.5 kmh 29.91 in1012.9 mb 0.00 in0.0 mm 0.00 in0.0 mm 0.00 in0.0 mm
03:30 AM 57.6°F14.2°C 53.1°F11.7°C 85% 1.3 mph E2.1 kmh E 2.2 mph3.5 kmh 29.91 in1012.9 mb 0.00 in0.0 mm 0.00 in0.0 mm 0.00 in0.0 mm
03:25 AM 57.4°F14.1°C 52.9°F11.6°C 85% 1.8 mph E2.9 kmh E 2.2 mph3.5 kmh 29.91 in1012.9 mb 0.00 in0.0 mm 0.00 in0.0 mm 0.00 in0.0 mm
03:20 AM 57.4°F14.1°C 52.9°F11.6°C 85% 1.3 mph E2.1 kmh E 2.2 mph3.5 kmh 29.91 in1012.9 mb 0.00 in0.0 mm 0.00 in0.0 mm 0.00 in0.0 mm
03:15 AM 57.0°F13.9°C 52.5°F11.4°C 85% 1.3 mph ESE2.1 kmh ESE 1.8 mph2.9 kmh 29.91 in1012.9 mb 0.00 in0.0 mm 0.00 in0.0 mm 0.00 in0.0 mm
03:10 AM 56.8°F13.8°C 52.0°F11.1°C 84% 1.3 mph NE2.1 kmh NE 1.8 mph2.9 kmh 29.91 in1012.9 mb 0.00 in0.0 mm 0.00 in0.0 mm 0.00 in0.0 mm
03:05 AM 56.8°F13.8°C 52.0°F11.1°C 84% 1.8 mph E2.9 kmh E 1.8 mph2.9 kmh 29.91 in1012.9 mb 0.00 in0.0 mm 0.00 in0.0 mm 0.00 in0.0 mm
03:00 AM 57.0°F13.9°C 52.2°F11.2°C 84% 1.8 mph E2.9 kmh E 2.2 mph3.5 kmh 29.91 in1012.9 mb 0.00 in0.0 mm 0.00 in0.0 mm 0.00 in0.0 mm
02:55 AM 57.0°F13.9°C 51.9°F11.1°C 83% 1.8 mph ENE2.9 kmh ENE 3.1 mph5.0 kmh 29.91 in1012.9 mb 0.00 in0.0 mm 0.00 in0.0 mm 0.00 in0.0 mm
02:50 AM 57.2°F14.0°C 52.1°F11.2°C 83% 2.2 mph ESE3.5 kmh ESE 3.1 mph5.0 kmh 29.91 in1012.9 mb 0.00 in0.0 mm 0.00 in0.0 mm 0.00 in0.0 mm
02:45 AM 57.2°F14.0°C 51.8°F11.0°C 82% 2.2 mph SE3.5 kmh SE 3.1 mph5.0 kmh 29.91 in1012.9 mb 0.00 in0.0 mm 0.00 in0.0 mm 0.00 in0.0 mm
02:40 AM 57.2°F14.0°C 51.8°F11.0°C 82% 1.8 mph E2.9 kmh E 2.2 mph3.5 kmh 29.91 in1012.9 mb 0.00 in0.0 mm 0.00 in0.0 mm 0.00 in0.0 mm
02:35 AM 57.2°F14.0°C 51.8°F11.0°C 82% 1.8 mph E2.9 kmh E 2.2 mph3.5 kmh 29.91 in1012.9 mb 0.00 in0.0 mm 0.00 in0.0 mm 0.00 in0.0 mm
02:30 AM 57.4°F14.1°C 51.6°F10.9°C 81% 1.3 mph SE2.1 kmh SE 1.8 mph2.9 kmh 29.91 in1012.9 mb 0.00 in0.0 mm 0.00 in0.0 mm 0.00 in0.0 mm
02:25 AM 57.4°F14.1°C 51.6°F10.9°C 81% 1.3 mph SE2.1 kmh SE 1.3 mph2.1 kmh 29.91 in1012.9 mb 0.00 in0.0 mm 0.00 in0.0 mm 0.00 in0.0 mm
02:20 AM 57.4°F14.1°C 51.3°F10.7°C 80% 1.8 mph E2.9 kmh E 2.2 mph3.5 kmh 29.91 in1012.9 mb 0.00 in0.0 mm 0.00 in0.0 mm 0.00 in0.0 mm
02:15 AM 57.4°F14.1°C 51.3°F10.7°C 80% 1.8 mph ENE2.9 kmh ENE 2.2 mph3.5 kmh 29.91 in1012.9 mb 0.00 in0.0 mm 0.00 in0.0 mm 0.00 in0.0 mm
02:10 AM 57.4°F14.1°C 50.9°F10.5°C 79% 1.8 mph E2.9 kmh E 2.2 mph3.5 kmh 29.91 in1012.9 mb 0.00 in0.0 mm 0.00 in0.0 mm 0.00 in0.0 mm
02:05 AM 57.6°F14.2°C 51.1°F10.6°C 79% 1.8 mph SSE2.9 kmh SSE 1.3 mph2.1 kmh 29.91 in1012.9 mb 0.00 in0.0 mm 0.00 in0.0 mm 0.00 in0.0 mm
02:00 AM 57.6°F14.2°C 51.1°F10.6°C 79% 2.2 mph SSE3.5 kmh SSE 3.1 mph5.0 kmh 29.91 in1012.9 mb 0.00 in0.0 mm 0.00 in0.0 mm 0.00 in0.0 mm
01:55 AM 57.6°F14.2°C 51.1°F10.6°C 79% 1.8 mph SE2.9 kmh SE 3.1 mph5.0 kmh 29.91 in1012.9 mb 0.00 in0.0 mm 0.00 in0.0 mm 0.00 in0.0 mm
01:50 AM 57.4°F14.1°C 50.9°F10.5°C 79% 1.3 mph SE2.1 kmh SE 3.1 mph5.0 kmh 29.91 in1012.9 mb 0.00 in0.0 mm 0.00 in0.0 mm 0.00 in0.0 mm
01:45 AM 57.4°F14.1°C 50.9°F10.5°C 79% 1.3 mph SE2.1 kmh SE 3.1 mph5.0 kmh 29.91 in1012.9 mb 0.00 in0.0 mm 0.00 in0.0 mm 0.00 in0.0 mm
01:40 AM 57.2°F14.0°C 50.7°F10.4°C 79% 1.3 mph E2.1 kmh E 1.3 mph2.1 kmh 29.91 in1012.9 mb 0.00 in0.0 mm 0.00 in0.0 mm 0.00 in0.0 mm
01:35 AM 57.4°F14.1°C 50.9°F10.5°C 79% 1.3 mph E2.1 kmh E 1.8 mph2.9 kmh 29.91 in1012.9 mb 0.00 in0.0 mm 0.00 in0.0 mm 0.00 in0.0 mm
01:30 AM 57.4°F14.1°C 50.9°F10.5°C 79% 1.8 mph E2.9 kmh E 3.1 mph5.0 kmh 29.91 in1012.9 mb 0.00 in0.0 mm 0.00 in0.0 mm 0.00 in0.0 mm
01:25 AM 57.6°F14.2°C 50.8°F10.4°C 78% 1.8 mph NE2.9 kmh NE 3.1 mph5.0 kmh 29.91 in1012.9 mb 0.00 in0.0 mm 0.00 in0.0 mm 0.00 in0.0 mm
01:20 AM 57.7°F14.3°C 50.9°F10.5°C 78% 1.8 mph ENE2.9 kmh ENE 3.1 mph5.0 kmh 29.91 in1012.9 mb 0.00 in0.0 mm 0.00 in0.0 mm 0.00 in0.0 mm
01:15 AM 57.7°F14.3°C 50.9°F10.5°C 78% 2.2 mph ESE3.5 kmh ESE 2.2 mph3.5 kmh 29.91 in1012.9 mb 0.00 in0.0 mm 0.00 in0.0 mm 0.00 in0.0 mm
01:10 AM 57.7°F14.3°C 50.9°F10.5°C 78% 2.2 mph SE3.5 kmh SE 2.2 mph3.5 kmh 29.91 in1012.9 mb 0.00 in0.0 mm 0.00 in0.0 mm 0.00 in0.0 mm
01:05 AM 57.9°F14.4°C 50.7°F10.4°C 77% 2.2 mph E3.5 kmh E 1.8 mph2.9 kmh 29.91 in1012.9 mb 0.00 in0.0 mm 0.00 in0.0 mm 0.00 in0.0 mm
01:00 AM 58.1°F14.5°C 50.9°F10.5°C 77% 2.2 mph NE3.5 kmh NE 4.0 mph6.4 kmh 29.91 in1012.9 mb 0.00 in0.0 mm 0.00 in0.0 mm 0.00 in0.0 mm
12:55 AM 58.1°F14.5°C 50.9°F10.5°C 77% 1.8 mph SE2.9 kmh SE 4.0 mph6.4 kmh 29.91 in1012.9 mb 0.00 in0.0 mm 0.00 in0.0 mm 0.00 in0.0 mm
12:50 AM 58.1°F14.5°C 50.9°F10.5°C 77% 2.2 mph SE3.5 kmh SE 4.0 mph6.4 kmh 29.92 in1013.2 mb 0.00 in0.0 mm 0.00 in0.0 mm 0.00 in0.0 mm
12:45 AM 58.1°F14.5°C 50.9°F10.5°C 77% 2.7 mph ESE4.3 kmh ESE 2.7 mph4.3 kmh 29.92 in1013.2 mb 0.00 in0.0 mm 0.00 in0.0 mm 0.00 in0.0 mm
12:40 AM 58.3°F14.6°C 51.1°F10.6°C 77% 2.2 mph E3.5 kmh E 2.2 mph3.5 kmh 29.92 in1013.2 mb 0.00 in0.0 mm 0.00 in0.0 mm 0.00 in0.0 mm
12:35 AM 58.1°F14.5°C 50.9°F10.5°C 77% 2.2 mph SE3.5 kmh SE 3.6 mph5.8 kmh 29.92 in1013.2 mb 0.00 in0.0 mm 0.00 in0.0 mm 0.00 in0.0 mm
12:30 AM 58.1°F14.5°C 50.9°F10.5°C 77% 2.7 mph E4.3 kmh E 3.6 mph5.8 kmh 29.92 in1013.2 mb 0.00 in0.0 mm 0.00 in0.0 mm 0.00 in0.0 mm
12:25 AM 58.3°F14.6°C 51.1°F10.6°C 77% 3.1 mph ENE5.0 kmh ENE 3.6 mph5.8 kmh 29.92 in1013.2 mb 0.00 in0.0 mm 0.00 in0.0 mm 0.00 in0.0 mm
12:20 AM 58.1°F14.5°C 51.3°F10.7°C 78% 3.1 mph E5.0 kmh E 5.4 mph8.7 kmh 29.92 in1013.2 mb 0.00 in0.0 mm 0.00 in0.0 mm 0.00 in0.0 mm
12:15 AM 58.1°F14.5°C 51.3°F10.7°C 78% 3.1 mph S5.0 kmh S 5.4 mph8.7 kmh 29.92 in1013.2 mb 0.00 in0.0 mm 0.00 in0.0 mm 0.00 in0.0 mm
12:10 AM 58.1°F14.5°C 51.3°F10.7°C 78% 3.1 mph S5.0 kmh S 5.4 mph8.7 kmh 29.92 in1013.2 mb 0.00 in0.0 mm 0.00 in0.0 mm 0.00 in0.0 mm
12:05 AM 57.9°F14.4°C 51.4°F10.8°C 79% 3.1 mph SSE5.0 kmh SSE 3.6 mph5.8 kmh 29.93 in1013.5 mb 0.00 in0.0 mm 0.00 in0.0 mm 0.00 in0.0 mm
12:00 AM 57.7°F14.3°C 51.2°F10.7°C 79% 2.7 mph SSE4.3 kmh SSE 4.5 mph7.2 kmh 29.93 in1013.5 mb 0.00 in0.0 mm 0.00 in0.0 mm 0.00 in0.0 mm